Time;durP1;ratioP1;P1;durP2;ratioP2;P2;SDS_P1;SDS_P2;PMS_P1;PMS_P2;Temp;Humidity;BMP_temperature;BMP_pressure;BME280_temperature;BME280_humidity;BME280_pressure;Samples;Min_cycle;Max_cycle;Signal;HPM_P1;HPM_P2
2023/05/29 00:02:05;;;;;;;15.32;7.15;;;;;;;11.70;81.32;102217.81;4968515;28;20077;-75
2023/05/29 00:04:30;;;;;;;14.00;6.78;;;;;;;11.62;81.67;102209.00;4952943;28;20050;-75
2023/05/29 00:06:56;;;;;;;14.18;7.03;;;;;;;11.57;81.87;102218.63;4961973;28;20027;-74
2023/05/29 00:09:21;;;;;;;15.38;6.57;;;;;;;11.57;81.28;102221.25;4966217;28;20396;-74
2023/05/29 00:11:50;;;;;;;17.92;6.70;;;;;;;11.49;81.38;102218.56;4952787;28;20038;-75
2023/05/29 00:14:19;;;;;;;16.80;6.68;;;;;;;11.49;81.14;102225.56;4969906;28;20030;-76
2023/05/29 00:16:46;;;;;;;15.35;5.82;;;;;;;11.39;81.16;102224.59;4970522;28;20042;-75
2023/05/29 00:19:13;;;;;;;18.58;6.05;;;;;;;11.35;80.38;102226.34;4968730;28;20118;-75
2023/05/29 00:21:41;;;;;;;15.43;5.90;;;;;;;11.27;80.80;102222.78;4936695;28;20027;-74
2023/05/29 00:24:07;;;;;;;17.15;5.20;;;;;;;11.24;80.36;102223.63;4961618;28;20074;-73
2023/05/29 00:26:36;;;;;;;15.00;5.28;;;;;;;11.18;79.78;102215.72;4969580;28;20027;-74
2023/05/29 00:29:10;;;;;;;14.48;5.88;;;;;;;11.12;80.70;102227.91;4971591;28;20173;-73
2023/05/29 00:31:39;;;;;;;15.73;5.22;;;;;;;11.08;79.62;102238.38;4973739;28;20102;-75
2023/05/29 00:34:04;;;;;;;18.25;5.43;;;;;;;10.87;78.91;102207.59;4969314;28;20035;-73
2023/05/29 00:36:31;;;;;;;13.43;4.47;;;;;;;10.97;78.34;102232.16;4956605;28;20510;-74
2023/05/29 00:38:57;;;;;;;14.43;5.20;;;;;;;10.90;78.82;102238.22;4968558;28;20027;-73
2023/05/29 00:41:22;;;;;;;19.33;5.15;;;;;;;10.89;79.06;102233.84;4970322;28;20157;-73
2023/05/29 00:43:47;;;;;;;16.63;4.70;;;;;;;10.87;79.07;102238.19;4968814;28;20125;-74
2023/05/29 00:46:16;;;;;;;13.77;4.68;;;;;;;10.80;79.11;102236.38;4966176;28;20130;-73
2023/05/29 00:48:42;;;;;;;16.55;5.38;;;;;;;10.72;78.44;102239.78;4968864;28;20035;-72
2023/05/29 00:51:09;;;;;;;13.00;4.57;;;;;;;10.68;78.12;102245.00;4967795;28;20027;-74
2023/05/29 00:53:35;;;;;;;15.43;4.47;;;;;;;10.66;77.82;102246.72;4964028;28;20468;-74
2023/05/29 00:56:02;;;;;;;15.50;4.90;;;;;;;10.57;77.52;102250.13;4969831;28;20063;-73
2023/05/29 00:58:27;;;;;;;18.65;4.32;;;;;;;10.53;76.90;102254.47;4956014;28;20030;-73
2023/05/29 01:00:53;;;;;;;21.80;4.90;;;;;;;10.52;77.19;102254.44;4972936;28;20404;-73
2023/05/29 01:03:20;;;;;;;12.63;4.68;;;;;;;10.46;77.06;102259.59;4989091;28;20106;-74
2023/05/29 01:05:48;;;;;;;15.85;4.38;;;;;;;10.37;77.43;102263.00;4972788;28;20085;-74
2023/05/29 01:08:14;;;;;;;14.90;4.50;;;;;;;10.35;76.74;102262.97;4953364;28;20038;-74
2023/05/29 01:10:42;;;;;;;15.75;4.25;;;;;;;10.26;76.73;102256.72;4975061;28;20039;-74
2023/05/29 01:13:30;;;;;;;21.05;5.30;;;;;;;10.22;76.28;102266.28;4974106;28;20162;-75
2023/05/29 01:16:08;;;;;;;18.70;4.80;;;;;;;10.10;76.22;102266.13;4988261;28;20379;-73
2023/05/29 01:18:56;;;;;;;13.98;4.22;;;;;;;10.10;76.27;102273.97;4963328;28;20317;-74
2023/05/29 01:21:51;;;;;;;13.20;4.15;;;;;;;10.02;76.39;102272.13;4972946;28;20038;-74
2023/05/29 01:24:32;;;;;;;20.67;4.60;;;;;;;9.95;76.40;102270.28;4974043;28;20372;-75
2023/05/29 01:27:01;;;;;;;17.70;4.28;;;;;;;9.91;76.83;102276.34;4972142;28;20053;-75
2023/05/29 01:29:31;;;;;;;15.80;4.13;;;;;;;9.92;76.95;102274.63;4971000;28;20094;-74
2023/05/29 01:31:58;;;;;;;17.17;4.57;;;;;;;9.87;77.03;102271.94;4983201;28;20026;-74
2023/05/29 01:34:23;;;;;;;12.63;3.67;;;;;;;9.87;77.00;102275.44;4934657;28;20093;-73
2023/05/29 01:36:49;;;;;;;11.43;3.50;;;;;;;9.80;77.42;102268.34;4947657;28;20059;-74
2023/05/29 01:39:15;;;;;;;17.98;4.18;;;;;;;9.76;76.93;102274.41;4974531;28;20105;-73
2023/05/29 01:41:43;;;;;;;15.35;4.13;;;;;;;9.69;77.58;102272.53;4957951;28;20483;-74
2023/05/29 01:44:10;;;;;;;14.40;4.07;;;;;;;9.69;77.27;102268.19;4970876;28;20504;-74
2023/05/29 01:46:38;;;;;;;15.48;3.92;;;;;;;9.64;77.25;102269.88;4953614;28;20130;-74
2023/05/29 01:49:05;;;;;;;12.88;3.42;;;;;;;9.62;77.57;102274.19;4950419;28;20113;-74
2023/05/29 01:51:31;;;;;;;20.38;4.07;;;;;;;9.54;77.91;102268.84;4972817;28;20051;-73
2023/05/29 01:53:58;;;;;;;17.20;3.97;;;;;;;9.53;77.93;102267.06;4972695;28;20160;-74
2023/05/29 01:56:26;;;;;;;14.30;3.72;;;;;;;9.49;77.83;102265.25;4957466;28;20031;-71
2023/05/29 01:58:54;;;;;;;18.30;4.32;;;;;;;9.51;77.76;102267.91;4973957;28;20041;-72
2023/05/29 02:01:21;;;;;;;17.77;3.65;;;;;;;9.44;78.32;102263.41;4972755;28;20146;-73
2023/05/29 02:03:46;;;;;;;18.75;3.63;;;;;;;9.46;78.14;102266.97;4973178;28;20034;-71
2023/05/29 02:06:12;;;;;;;16.95;3.95;;;;;;;9.39;78.27;102265.09;4955345;28;20031;-71
2023/05/29 02:08:37;;;;;;;15.85;4.07;;;;;;;9.34;79.24;102265.03;4954418;28;20081;-71
2023/05/29 02:11:02;;;;;;;17.10;3.70;;;;;;;9.32;78.71;102262.41;4955525;28;20078;-71
2023/05/29 02:13:28;;;;;;;17.90;4.28;;;;;;;9.27;79.10;102266.66;4954399;28;20121;-72
2023/05/29 02:15:53;;;;;;;15.75;4.13;;;;;;;9.29;78.80;102262.31;4955627;28;20054;-71
2023/05/29 02:18:20;;;;;;;16.38;3.63;;;;;;;9.26;78.66;102271.88;4969238;28;20045;-71
2023/05/29 02:20:45;;;;;;;16.33;4.50;;;;;;;9.21;79.28;102269.19;4972017;28;20042;-70
2023/05/29 02:23:11;;;;;;;15.50;3.97;;;;;;;9.22;79.32;102270.06;4970823;28;20080;-71
2023/05/29 02:25:37;;;;;;;18.60;4.43;;;;;;;9.20;79.04;102264.81;4972331;28;20356;-70
2023/05/29 02:28:03;;;;;;;18.05;4.38;;;;;;;9.20;78.98;102267.41;4973181;28;20351;-71
2023/05/29 02:30:29;;;;;;;15.02;4.43;;;;;;;9.13;79.64;102261.19;4972988;28;20034;-71
2023/05/29 02:32:54;;;;;;;16.67;4.47;;;;;;;9.14;79.81;102267.31;4972568;28;20046;-71
2023/05/29 02:35:22;;;;;;;17.42;4.63;;;;;;;9.10;79.86;102271.59;4971866;28;20337;-72
2023/05/29 02:37:52;;;;;;;19.33;4.22;;;;;;;9.06;80.53;102282.84;4957110;28;20075;-71
2023/05/29 02:40:18;;;;;;;18.00;4.18;;;;;;;9.07;80.00;102274.16;4969137;28;20070;-70
2023/05/29 02:42:44;;;;;;;14.00;3.75;;;;;;;9.01;80.47;102288.00;4972482;28;20395;-71
2023/05/29 02:45:10;;;;;;;20.23;4.00;;;;;;;8.99;80.69;102289.72;4970573;28;20101;-71
2023/05/29 02:47:36;;;;;;;18.75;4.15;;;;;;;8.97;80.23;102280.97;4972694;28;20043;-71
2023/05/29 02:50:02;;;;;;;14.57;4.03;;;;;;;8.97;79.98;102293.16;4972271;28;20372;-71
2023/05/29 02:52:28;;;;;;;16.83;4.28;;;;;;;8.92;80.71;102295.72;4954072;28;20093;-72
2023/05/29 02:54:56;;;;;;;17.48;4.68;;;;;;;8.91;80.89;102286.09;4971980;28;20459;-71
2023/05/29 02:57:22;;;;;;;19.45;4.25;;;;;;;8.90;80.67;102291.28;4955842;28;20042;-71
2023/05/29 02:59:48;;;;;;;17.80;4.47;;;;;;;8.87;81.17;102299.97;4954248;28;20037;-71
2023/05/29 03:02:14;;;;;;;17.90;4.35;;;;;;;8.87;81.15;102294.72;4969576;28;20041;-71
2023/05/29 03:04:40;;;;;;;13.88;3.95;;;;;;;8.84;81.18;102290.31;4960718;28;20031;-74
2023/05/29 03:07:06;;;;;;;18.02;4.10;;;;;;;8.82;81.85;102293.75;4955082;28;20049;-73
2023/05/29 03:09:32;;;;;;;18.83;4.70;;;;;;;8.81;81.85;102294.63;4970401;28;20026;-71
2023/05/29 03:11:57;;;;;;;17.35;4.40;;;;;;;8.77;82.35;102288.44;4988854;28;20467;-71
2023/05/29 03:14:23;;;;;;;18.67;4.60;;;;;;;8.81;82.01;102294.63;4970760;28;20125;-71
2023/05/29 03:16:49;;;;;;;21.75;4.97;;;;;;;8.74;82.22;102287.53;4969787;28;20651;-72
2023/05/29 03:19:14;;;;;;;17.42;4.35;;;;;;;8.72;83.02;102294.44;4969810;28;20038;-72
2023/05/29 03:21:40;;;;;;;18.23;4.70;;;;;;;8.76;82.77;102301.47;4971409;28;20034;-71
2023/05/29 03:24:06;;;;;;;18.30;4.53;;;;;;;8.70;83.03;102293.53;4971480;28;20027;-72
2023/05/29 03:26:31;;;;;;;24.05;5.28;;;;;;;8.72;83.27;102294.44;4968692;28;20113;-71
2023/05/29 03:28:56;;;;;;;15.85;4.20;;;;;;;8.73;82.92;102293.59;4954164;28;20027;-71
2023/05/29 03:31:22;;;;;;;15.60;4.03;;;;;;;8.72;82.78;102299.66;4968687;28;20027;-71
2023/05/29 03:33:49;;;;;;;21.45;5.20;;;;;;;8.71;82.95;102311.84;4968395;28;20091;-72
2023/05/29 03:36:16;;;;;;;18.80;4.70;;;;;;;8.72;83.13;102305.78;4965526;28;20051;-71
2023/05/29 03:38:43;;;;;;;18.45;4.70;;;;;;;8.65;83.42;102304.78;4964193;28;20078;-71
2023/05/29 03:41:08;;;;;;;19.60;4.53;;;;;;;8.67;83.64;102308.28;4969480;28;20018;-72
2023/05/29 03:43:34;;;;;;;21.58;5.15;;;;;;;8.66;83.76;102310.88;4971355;28;20035;-71
2023/05/29 03:46:00;;;;;;;17.73;4.57;;;;;;;8.66;83.65;102306.53;4955756;28;20065;-71
2023/05/29 03:48:25;;;;;;;25.23;4.55;;;;;;;8.66;83.28;102306.53;4968930;28;20082;-74
2023/05/29 03:50:51;;;;;;;19.55;4.25;;;;;;;8.65;83.72;102307.38;4962955;28;20160;-71
2023/05/29 03:53:16;;;;;;;14.77;4.15;;;;;;;8.65;83.55;102312.63;4970932;28;20027;-72
2023/05/29 03:55:41;;;;;;;17.45;4.50;;;;;;;8.66;83.59;102306.53;4955863;28;20027;-72
2023/05/29 03:58:07;;;;;;;24.73;5.07;;;;;;;8.64;83.22;102310.84;4963770;28;20444;-72
2023/05/29 04:00:32;;;;;;;18.00;4.53;;;;;;;8.66;83.67;102318.72;4953455;28;20126;-75
2023/05/29 04:02:58;;;;;;;16.75;4.35;;;;;;;8.69;83.39;102321.38;4971917;28;20045;-75
2023/05/29 04:05:23;;;;;;;14.55;3.97;;;;;;;8.72;82.97;102326.69;4955238;28;20031;-75
2023/05/29 04:07:49;;;;;;;16.70;4.55;;;;;;;8.74;83.12;102324.97;4972365;28;20045;-74
2023/05/29 04:10:15;;;;;;;17.52;4.38;;;;;;;8.78;82.98;102325.94;4955705;28;20486;-75
2023/05/29 04:12:40;;;;;;;18.35;4.55;;;;;;;8.80;82.75;102334.66;4959601;28;20063;-74
2023/05/29 04:15:06;;;;;;;19.38;4.60;;;;;;;8.85;82.43;102348.72;4955469;28;20110;-74
2023/05/29 04:17:32;;;;;;;18.20;4.25;;;;;;;8.84;81.83;102333.88;4963951;28;20082;-74
2023/05/29 04:19:58;;;;;;;21.45;4.18;;;;;;;8.87;82.35;102335.69;4936619;28;20022;-76
2023/05/29 04:22:23;;;;;;;16.27;3.67;;;;;;;8.93;82.46;102334.03;4955994;28;20371;-78
2023/05/29 04:24:49;;;;;;;16.52;3.95;;;;;;;8.94;82.00;102332.34;4944654;28;20395;-76
2023/05/29 04:27:14;;;;;;;21.55;4.75;;;;;;;8.98;81.36;102339.38;4971817;28;20118;-75
2023/05/29 04:29:42;;;;;;;17.20;4.00;;;;;;;9.08;81.60;102336.09;4987382;28;20039;-77
2023/05/29 04:32:09;;;;;;;16.13;4.70;;;;;;;9.13;81.35;102338.78;4955395;28;20120;-75
2023/05/29 04:34:35;;;;;;;18.92;4.20;;;;;;;9.16;80.83;102346.69;4958136;28;20038;-75
2023/05/29 04:37:03;;;;;;;15.75;3.80;;;;;;;9.17;80.63;102331.00;4958422;28;20380;-77
2023/05/29 04:39:29;;;;;;;18.80;4.47;;;;;;;9.27;80.71;102337.28;4967009;28;20081;-75
2023/05/29 04:41:57;;;;;;;17.45;4.07;;;;;;;9.26;80.60;102340.75;4975494;28;20033;-75
2023/05/29 04:44:25;;;;;;;20.05;4.72;;;;;;;9.31;80.05;102346.06;4974935;28;20031;-76
2023/05/29 04:46:51;;;;;;;18.25;3.50;;;;;;;9.36;79.69;102345.28;4975961;28;20035;-77
2023/05/29 04:49:17;;;;;;;19.25;4.70;;;;;;;9.49;80.47;102342.88;4958071;28;20058;-75
2023/05/29 04:51:42;;;;;;;18.77;4.43;;;;;;;9.53;79.44;102349.94;4950708;28;20487;-74
2023/05/29 04:54:11;;;;;;;16.95;4.32;;;;;;;9.54;78.97;102331.66;4972539;28;20390;-74
2023/05/29 04:56:37;;;;;;;20.20;4.35;;;;;;;9.57;79.30;102345.63;4956359;28;20480;-76
2023/05/29 04:59:03;;;;;;;19.65;4.10;;;;;;;9.64;78.61;102340.53;4958510;28;20165;-75
2023/05/29 05:01:28;;;;;;;22.25;5.00;;;;;;;9.80;78.74;102351.25;4972300;28;20125;-74
2023/05/29 05:03:55;;;;;;;18.95;4.72;;;;;;;9.84;78.21;102342.56;4970016;28;20037;-78
2023/05/29 05:06:22;;;;;;;14.55;4.20;;;;;;;9.88;77.46;102352.22;4964245;28;20055;-75
2023/05/29 05:08:47;;;;;;;21.65;4.25;;;;;;;9.98;78.05;102348.88;4955055;28;20117;-77
2023/05/29 05:11:14;;;;;;;21.55;4.50;;;;;;;10.09;77.97;102341.22;4955818;28;20452;-75
2023/05/29 05:13:39;;;;;;;22.65;4.97;;;;;;;10.26;77.79;102344.06;4969211;28;20105;-75
2023/05/29 05:16:05;;;;;;;18.10;4.05;;;;;;;10.25;76.92;102350.16;4966288;28;20130;-74
2023/05/29 05:18:31;;;;;;;18.75;4.57;;;;;;;10.39;76.04;102360.88;4954737;28;20022;-78
2023/05/29 05:20:56;;;;;;;23.90;4.60;;;;;;;10.46;76.69;102359.19;4973518;28;20386;-76
2023/05/29 05:23:21;;;;;;;15.23;4.38;;;;;;;10.70;75.83;102367.38;4972468;28;20460;-75
2023/05/29 05:25:47;;;;;;;20.35;4.07;;;;;;;10.77;75.37;102367.44;4972802;28;20031;-76
2023/05/29 05:28:13;;;;;;;18.23;4.50;;;;;;;10.69;74.45;102372.63;4973474;28;20170;-77
2023/05/29 05:30:38;;;;;;;19.58;4.57;;;;;;;10.82;74.08;102377.13;4970061;28;20031;-76
2023/05/29 05:33:03;;;;;;;19.35;5.00;;;;;;;10.96;73.72;102379.94;4974213;28;20061;-75
2023/05/29 05:35:29;;;;;;;17.02;4.22;;;;;;;10.99;72.97;102379.97;4954384;28;20059;-74
2023/05/29 05:37:57;;;;;;;17.48;4.10;;;;;;;11.13;73.71;102382.72;4966304;28;20246;-72
2023/05/29 05:40:23;;;;;;;20.58;4.40;;;;;;;11.17;72.75;102383.63;4973824;28;20031;-72
2023/05/29 05:42:49;;;;;;;17.73;4.70;;;;;;;11.36;74.02;102375.06;4954591;28;20090;-72
2023/05/29 05:45:14;;;;;;;19.92;4.20;;;;;;;11.30;71.76;102375.00;4956379;28;20035;-73
2023/05/29 05:47:39;;;;;;;21.00;4.63;;;;;;;11.46;72.25;102377.78;4965992;28;20050;-72
2023/05/29 05:50:05;;;;;;;17.95;3.97;;;;;;;11.54;72.05;102374.38;4971489;28;20483;-71
2023/05/29 05:52:32;;;;;;;16.77;4.28;;;;;;;11.68;70.74;102364.00;4940341;28;20162;-72
2023/05/29 05:54:58;;;;;;;20.25;3.97;;;;;;;11.74;70.64;102369.28;4971117;28;20035;-72
2023/05/29 05:57:23;;;;;;;19.02;3.65;;;;;;;11.92;70.66;102363.31;4967835;28;20031;-72
2023/05/29 05:59:48;;;;;;;20.15;4.88;;;;;;;12.10;70.10;102373.06;4956457;28;20049;-73
2023/05/29 06:02:14;;;;;;;14.20;4.20;;;;;;;12.13;67.71;102365.19;4955183;28;20031;-73
2023/05/29 06:04:40;;;;;;;18.83;4.22;;;;;;;12.27;68.91;102378.44;4971890;28;20084;-72
2023/05/29 06:07:06;;;;;;;17.88;5.03;;;;;;;12.32;67.24;102373.19;4956897;28;20062;-72
2023/05/29 06:09:31;;;;;;;18.67;4.50;;;;;;;12.53;68.05;102368.91;4962685;28;20107;-71
2023/05/29 06:11:57;;;;;;;14.27;3.65;;;;;;;12.58;66.37;102372.44;4972216;28;20228;-72
2023/05/29 06:14:23;;;;;;;17.73;4.32;;;;;;;12.64;65.87;102380.34;4973458;28;20038;-72
2023/05/29 06:16:51;;;;;;;12.45;3.60;;;;;;;12.76;65.71;102380.41;4973524;28;20023;-73
2023/05/29 06:19:16;;;;;;;21.55;4.22;;;;;;;12.90;65.60;102380.47;4951274;28;20383;-73
2023/05/29 06:21:42;;;;;;;17.90;3.50;;;;;;;13.01;63.73;102383.13;4970642;28;20043;-74
2023/05/29 06:24:07;;;;;;;19.80;4.88;;;;;;;13.18;64.11;102391.94;4968643;28;20491;-73
2023/05/29 06:26:33;;;;;;;20.95;4.13;;;;;;;13.14;63.59;102392.78;4973523;28;20076;-73
2023/05/29 06:28:58;;;;;;;18.73;3.53;;;;;;;13.23;63.38;102393.69;4952558;28;20042;-71
2023/05/29 06:31:24;;;;;;;18.95;3.85;;;;;;;13.47;62.59;102396.41;4960887;28;20024;-73
2023/05/29 06:33:50;;;;;;;21.70;4.03;;;;;;;13.52;61.74;102394.66;4972636;28;20027;-73
2023/05/29 06:36:18;;;;;;;16.05;3.10;;;;;;;13.65;62.41;102400.81;4952877;28;20070;-72
2023/05/29 06:38:52;;;;;;;13.77;3.10;;;;;;;13.82;61.40;102394.66;4985289;28;20038;-72
2023/05/29 06:41:58;;;;;;;13.18;3.60;;;;;;;13.91;61.41;102399.06;4972327;28;20101;-71
2023/05/29 06:44:31;;;;;;;13.65;2.95;;;;;;;13.90;59.81;102397.31;4973460;28;20380;-71
2023/05/29 06:47:01;;;;;;;12.20;3.25;;;;;;;13.97;60.92;102396.41;4988588;28;20119;-73
2023/05/29 06:49:52;;;;;;;12.00;3.38;;;;;;;14.04;60.17;102411.34;4964569;28;20776;-72
2023/05/29 06:52:21;;;;;;;19.38;4.07;;;;;;;13.81;60.36;102399.06;4962068;28;20435;-72
2023/05/29 06:54:49;;;;;;;14.80;3.40;;;;;;;13.79;59.56;102386.75;4970510;28;20042;-73
2023/05/29 06:57:17;;;;;;;15.30;3.53;;;;;;;13.71;59.96;102397.31;4968403;28;20110;-73
2023/05/29 06:59:42;;;;;;;17.42;3.42;;;;;;;13.43;60.46;102397.28;4955828;28;20118;-74
2023/05/29 07:02:08;;;;;;;17.45;3.90;;;;;;;13.52;60.25;102399.94;4971657;28;20545;-73
2023/05/29 07:04:33;;;;;;;16.20;3.83;;;;;;;13.64;60.64;102400.81;4955692;28;20054;-72
2023/05/29 07:06:58;;;;;;;15.05;3.13;;;;;;;13.63;61.65;102404.31;4969838;28;20484;-72
2023/05/29 07:09:25;;;;;;;16.50;3.25;;;;;;;13.70;60.53;102406.06;4963961;28;20031;-72
2023/05/29 07:11:50;;;;;;;15.52;3.28;;;;;;;13.91;60.46;102393.78;4956575;28;20418;-72
2023/05/29 07:14:16;;;;;;;12.07;3.08;;;;;;;13.87;58.65;102392.91;4969397;28;20039;-73
2023/05/29 07:16:41;;;;;;;17.58;3.33;;;;;;;14.11;59.80;102409.59;4954397;28;20073;-74
2023/05/29 07:19:07;;;;;;;13.10;3.25;;;;;;;14.11;59.10;102399.91;4954922;28;20038;-73
2023/05/29 07:21:32;;;;;;;11.65;3.60;;;;;;;14.09;58.16;102399.00;4963621;28;20703;-74
2023/05/29 07:23:58;;;;;;;15.10;3.72;;;;;;;14.21;59.30;102403.41;4972369;28;20081;-72
2023/05/29 07:26:25;;;;;;;14.63;2.90;;;;;;;14.21;57.45;102401.63;4972475;28;20015;-73
2023/05/29 07:28:50;;;;;;;15.57;2.80;;;;;;;14.36;58.48;102407.75;4971231;28;20034;-73
2023/05/29 07:31:16;;;;;;;16.48;3.28;;;;;;;14.27;57.35;102407.78;4971693;28;20038;-73
2023/05/29 07:33:41;;;;;;;11.88;3.17;;;;;;;14.17;57.22;102407.78;4949384;29;20084;-73
2023/05/29 07:36:07;;;;;;;16.90;3.55;;;;;;;14.04;58.89;102419.25;4971041;28;20054;-73
2023/05/29 07:38:53;;;;;;;12.40;3.20;;;;;;;14.20;57.35;102412.19;4967896;28;20034;-74
2023/05/29 07:41:26;;;;;;;10.70;2.90;;;;;;;14.29;58.24;102414.78;4954899;28;20035;-72
2023/05/29 07:43:55;;;;;;;19.00;3.75;;;;;;;14.48;58.12;102412.13;4987791;28;20105;-73
2023/05/29 07:46:21;;;;;;;13.35;2.80;;;;;;;14.31;57.37;102420.06;4969008;28;20035;-72
2023/05/29 07:48:50;;;;;;;11.50;2.85;;;;;;;14.44;56.84;102419.19;4948999;28;20819;-72
2023/05/29 07:51:15;;;;;;;14.50;2.95;;;;;;;14.45;56.34;102422.69;4967116;28;20046;-72
2023/05/29 07:53:45;;;;;;;15.48;3.55;;;;;;;14.38;56.22;102421.84;4968015;28;20030;-74
2023/05/29 07:56:10;;;;;;;13.40;2.97;;;;;;;14.54;56.60;102422.66;4970709;28;20471;-73
2023/05/29 07:58:36;;;;;;;10.00;2.53;;;;;;;14.55;55.86;102424.41;4954660;28;20030;-72
2023/05/29 08:01:02;;;;;;;13.10;3.42;;;;;;;14.49;56.03;102420.03;4951788;28;20383;-74
2023/05/29 08:03:27;;;;;;;9.65;2.47;;;;;;;14.50;55.80;102427.06;4950152;29;20042;-73
2023/05/29 08:05:53;;;;;;;11.73;3.08;;;;;;;14.48;56.31;102430.56;4965194;28;20085;-73
2023/05/29 08:08:19;;;;;;;16.55;3.28;;;;;;;14.40;56.44;102430.63;4969455;28;20027;-73
2023/05/29 08:10:45;;;;;;;13.80;3.28;;;;;;;14.38;56.73;102433.25;4961785;28;20102;-72
2023/05/29 08:13:10;;;;;;;12.32;3.13;;;;;;;14.54;55.21;102423.53;4955144;28;20459;-73
2023/05/29 08:15:35;;;;;;;7.22;2.03;;;;;;;14.71;56.11;102423.53;4971570;28;20491;-73
2023/05/29 08:18:01;;;;;;;13.30;3.25;;;;;;;14.68;54.45;102427.91;4954419;28;20149;-74
2023/05/29 08:20:26;;;;;;;8.60;2.15;;;;;;;14.71;55.51;102419.97;4968723;28;20439;-73
2023/05/29 08:22:52;;;;;;;9.38;2.90;;;;;;;14.82;55.43;102439.28;4968885;28;20399;-73
2023/05/29 08:25:17;;;;;;;12.88;3.05;;;;;;;14.59;54.38;102441.13;4955086;28;20042;-75
2023/05/29 08:27:46;;;;;;;13.35;3.22;;;;;;;14.60;56.20;102442.88;4983508;28;20031;-74
2023/05/29 08:30:13;;;;;;;11.23;2.88;;;;;;;14.65;56.18;102443.75;4938546;28;20122;-74
2023/05/29 08:32:38;;;;;;;17.23;3.97;;;;;;;14.55;55.17;102434.97;4969120;28;20122;-74
2023/05/29 08:35:04;;;;;;;16.20;3.38;;;;;;;14.52;54.12;102443.78;4953797;28;20023;-74
2023/05/29 08:37:29;;;;;;;13.25;2.72;;;;;;;14.44;57.00;102436.75;4954422;28;20078;-76
2023/05/29 08:39:55;;;;;;;11.55;2.97;;;;;;;14.47;55.60;102437.63;4985550;28;20038;-74
2023/05/29 08:42:29;;;;;;;12.77;2.60;;;;;;;14.52;56.30;102446.41;4954594;28;20447;-76
2023/05/29 08:44:59;;;;;;;14.27;2.97;;;;;;;14.64;55.67;102440.25;4967731;28;20038;-75
2023/05/29 08:47:27;;;;;;;18.52;3.75;;;;;;;14.73;54.76;102444.63;4953353;28;20039;-78
2023/05/29 08:49:54;;;;;;;10.95;2.70;;;;;;;14.72;55.22;102442.84;4963712;28;20038;-77
2023/05/29 08:52:23;;;;;;;12.15;3.22;;;;;;;14.79;54.44;102449.00;4966410;28;20468;-76
2023/05/29 08:54:49;;;;;;;13.88;3.20;;;;;;;14.97;55.63;102448.94;4987012;28;20365;-75
2023/05/29 08:57:15;;;;;;;11.80;2.92;;;;;;;15.12;54.36;102441.81;4969709;28;20053;-76
2023/05/29 08:59:49;;;;;;;9.85;2.67;;;;;;;15.32;56.17;102449.63;4967687;28;20027;-80
2023/05/29 09:02:15;;;;;;;13.32;2.38;;;;;;;15.33;53.19;102446.97;4970724;28;20502;-74
2023/05/29 09:04:54;;;;;;;13.10;3.10;;;;;;;15.37;53.23;102453.09;4967533;28;20172;-77
2023/05/29 09:07:19;;;;;;;12.02;2.97;;;;;;;15.41;52.08;102444.28;4973220;28;20046;-76
2023/05/29 09:09:48;;;;;;;10.40;2.67;;;;;;;15.33;51.37;102446.97;4971281;28;20118;-77
2023/05/29 09:12:15;;;;;;;14.88;2.40;;;;;;;15.48;55.11;102451.28;4978877;28;20022;-77
2023/05/29 09:14:44;;;;;;;14.70;3.33;;;;;;;15.58;53.20;102438.88;4969235;28;20084;-74
2023/05/29 09:17:10;;;;;;;10.23;2.63;;;;;;;15.47;51.56;102441.59;4967196;28;20165;-75
2023/05/29 09:19:38;;;;;;;10.43;2.75;;;;;;;15.57;52.19;102445.03;4952984;28;20053;-76
2023/05/29 09:22:04;;;;;;;11.70;2.13;;;;;;;15.61;51.51;102438.84;4968114;28;20349;-76
2023/05/29 09:24:32;;;;;;;10.52;2.75;;;;;;;15.57;52.06;102445.03;4967991;28;20105;-74
2023/05/29 09:27:00;;;;;;;11.02;2.72;;;;;;;15.65;51.62;102447.66;4973980;28;20031;-75
2023/05/29 09:29:25;;;;;;;11.02;2.92;;;;;;;15.59;50.68;102449.44;4953516;28;20069;-75
2023/05/29 09:31:53;;;;;;;8.98;2.58;;;;;;;15.76;53.44;102440.53;4972978;28;20764;-75
2023/05/29 09:34:19;;;;;;;11.93;2.95;;;;;;;15.90;52.01;102449.25;4973812;28;20121;-74
2023/05/29 09:36:44;;;;;;;10.50;2.47;;;;;;;15.85;51.69;102445.75;4971687;28;20582;-75
2023/05/29 09:39:10;;;;;;;15.02;3.40;;;;;;;15.94;53.24;102437.72;4946508;28;20057;-74
2023/05/29 09:41:43;;;;;;;8.65;2.63;;;;;;;16.03;52.20;102446.47;4968493;28;20066;-75
2023/05/29 09:44:13;;;;;;;11.23;2.67;;;;;;;16.04;51.83;102442.97;4941001;28;20019;-76
2023/05/29 09:46:40;;;;;;;15.80;3.40;;;;;;;16.08;52.10;102436.75;4975254;28;20089;-75
2023/05/29 09:49:16;;;;;;;15.20;3.33;;;;;;;16.12;52.14;102441.13;4971392;28;20129;-74
2023/05/29 09:51:42;;;;;;;9.43;2.50;;;;;;;16.18;51.71;102430.47;4956550;28;20043;-71
2023/05/29 09:54:18;;;;;;;10.93;2.70;;;;;;;16.21;51.75;102441.03;4973555;28;20058;-73
2023/05/29 09:56:45;;;;;;;11.02;3.35;;;;;;;16.08;50.18;102444.69;4972920;28;20023;-73
2023/05/29 09:59:12;;;;;;;10.73;2.90;;;;;;;16.09;50.75;102438.47;4974754;28;20037;-72
2023/05/29 10:01:43;;;;;;;8.35;2.63;;;;;;;16.13;50.75;102428.78;4974280;28;20086;-73
2023/05/29 10:04:13;;;;;;;14.52;3.00;;;;;;;16.31;51.98;102438.31;4970328;28;20054;-74
2023/05/29 10:06:44;;;;;;;11.07;2.70;;;;;;;16.41;51.48;102442.59;4972875;28;20363;-75
2023/05/29 10:09:13;;;;;;;10.93;2.65;;;;;;;16.51;52.16;102441.59;4973699;28;20045;-73
2023/05/29 10:11:43;;;;;;;12.55;3.25;;;;;;;16.41;49.86;102435.53;4974190;28;20387;-77
2023/05/29 10:14:11;;;;;;;9.40;3.37;;;;;;;16.32;51.13;102435.66;4986351;28;20031;-74
2023/05/29 10:16:43;;;;;;;12.88;2.90;;;;;;;16.42;51.87;102436.41;4971189;28;20313;-74
2023/05/29 10:19:18;;;;;;;8.70;3.30;;;;;;;16.64;52.85;102431.75;4989254;28;20542;-74
2023/05/29 10:21:44;;;;;;;13.55;3.38;;;;;;;16.83;51.38;102432.41;4969336;28;20113;-73
2023/05/29 10:24:10;;;;;;;12.30;2.53;;;;;;;16.91;50.97;102435.88;4966327;28;20035;-74
2023/05/29 10:26:39;;;;;;;10.70;2.95;;;;;;;17.03;51.09;102436.59;4969270;28;20121;-74
2023/05/29 10:29:24;;;;;;;9.82;2.63;;;;;;;17.01;49.59;102433.09;4965925;28;20121;-74
2023/05/29 10:32:13;;;;;;;11.45;2.65;;;;;;;17.11;50.79;102430.31;4986951;28;20042;-77
2023/05/29 10:35:06;;;;;;;9.75;3.13;;;;;;;17.15;49.54;102428.47;4965279;28;20120;-76
2023/05/29 10:37:49;;;;;;;9.15;2.72;;;;;;;17.20;49.53;102431.94;4968452;28;20049;-77
2023/05/29 10:40:16;;;;;;;12.00;3.17;;;;;;;17.13;48.61;102425.84;4968709;28;20027;-78
2023/05/29 10:42:44;;;;;;;11.55;2.72;;;;;;;17.08;48.50;102433.00;4972316;28;20113;-76
2023/05/29 10:45:13;;;;;;;10.30;3.00;;;;;;;17.13;49.53;102430.28;4972038;28;20659;-77
2023/05/29 10:47:39;;;;;;;10.27;2.67;;;;;;;17.08;49.64;102424.16;4972003;28;20023;-76
2023/05/29 10:50:05;;;;;;;9.30;2.83;;;;;;;17.20;49.71;102431.94;4949845;28;20468;-75
2023/05/29 10:52:32;;;;;;;8.07;2.70;;;;;;;17.30;49.01;102432.69;4959027;28;20041;-75
2023/05/29 10:54:58;;;;;;;13.27;3.15;;;;;;;17.38;49.46;102424.63;4977691;28;20113;-74
2023/05/29 10:57:24;;;;;;;10.60;2.60;;;;;;;17.45;47.93;102416.53;4969342;28;20162;-76
2023/05/29 11:00:18;;;;;;;8.20;2.53;;;;;;;17.41;48.67;102429.88;4970343;28;20145;-77
2023/05/29 11:02:43;;;;;;;10.32;3.05;;;;;;;17.40;48.18;102422.84;4964782;28;20391;-76
2023/05/29 11:05:24;;;;;;;10.40;2.78;;;;;;;17.42;48.12;102421.91;4955695;28;20038;-76
2023/05/29 11:07:54;;;;;;;8.65;2.90;;;;;;;17.41;46.33;102421.91;4971727;28;20031;-75
2023/05/29 11:10:52;;;;;;;9.68;2.60;;;;;;;17.56;48.90;102415.53;4969935;28;20045;-75
2023/05/29 11:13:25;;;;;;;12.13;2.95;;;;;;;17.65;46.90;102420.66;4957568;28;20106;-75
2023/05/29 11:16:14;;;;;;;9.57;2.70;;;;;;;17.68;47.82;102410.00;4965965;28;20117;-76
2023/05/29 11:18:47;;;;;;;9.25;2.58;;;;;;;17.70;47.50;102407.31;4968399;28;20036;-76
2023/05/29 11:21:52;;;;;;;8.93;2.50;;;;;;;17.80;47.73;102406.25;4967330;28;20173;-76
2023/05/29 11:24:25;;;;;;;12.10;2.80;;;;;;;17.82;47.03;102408.00;4977140;28;20049;-75